Home PIREPS Pireps

Flight BEL2317

  • Submitted By: AndrĂ© Vincent
  • Departure Airport: Bruxelles National (EBBR)
  • Arrival Airport: Goteborg / Landvetter (ESGG)
  • Aircraft: A319-112 (OO-SSK)
  • Flight Time: 01.37
  • Date Submitted: 07/03/2015
  • Status: Accepted
Flight Details
Gross Revenue:
(120 load / € 0.00 per unit
€ 0.00
Fuel Cost:
(7229 fuel used @ 5.1 / unit)
€ 36,867.90

Additional Log Information:

View Log

Aircraft Used in flight is Boeing 737-800 sabena paint
08:22 Brakes are On
08:25 Brakes are Released
08:28 You Took off @ 193 Knots and Flaps at Position 2
Departure Weather
EBBR 070650Z 19010KT CAVOK 04/00 Q1030 NOSIGrn
08:28 You are Airborne and your Navigation Lights are off
08:28 Landing Gear Up @ 197 Knots and 200 Feet
08:28 You exceeded maximum bank angle
08:31 Below Fl100 you need to turn on the landing lights
08:31 Below FL100 you need to turn on the landing lights
08:31 Below 10000 feet you are not allowed to go over 250 knots
09:55 You Landed @ 141 Knots and with -150 Vertical Speed
Arrival Weather
ESGG 070820Z 20020KT 9000 BR OVC008 03/02 Q1017 R21/19//95rn
09:55 Landing Gear Down @ 20 Knots and 510 Feet
09:59 Brakes are On
10:00 Brussels Bel-Track1.0.0.8

Route Map

Corporate About Us Our Team Vacancies Information Fleet Route Network Rules and Regulations Operations Flight Schedules Event Center Tours Partners IVAO Vatsim Acars dev FSCB

fb Users Online No pilots online!
0 Pilot(s) and 118 Guest(s) Online
CMS by phpVMS - Design by Crazycreatives.com - Copyright © 2018 - Brussels Airlines Virtual